Time;durP1;ratioP1;P1;durP2;ratioP2;P2;SDS_P1;SDS_P2;PMS_P1;PMS_P2;Temp;Humidity;BMP_temperature;BMP_pressure;BME280_temperature;BME280_humidity;BME280_pressure;Samples;Min_cycle;Max_cycle;Signal;HPM_P1;HPM_P2
2024/02/06 00:01:03;;;;;;;0.00;0.00;;;;;;;10.58;45.75;99888.84;4204393;33;34076;-84
2024/02/06 00:03:31;;;;;;;0.00;0.00;;;;;;;10.79;45.21;99884.44;4210691;33;33446;-83
2024/02/06 00:05:58;;;;;;;0.25;0.25;;;;;;;10.97;44.21;99885.44;4201325;33;33013;-83
2024/02/06 00:08:26;;;;;;;1.27;0.70;;;;;;;10.92;43.75;99883.00;4214237;33;32516;-83
2024/02/06 00:10:54;;;;;;;0.25;0.25;;;;;;;11.26;42.82;99881.50;4213780;33;31576;-84
2024/02/06 00:13:22;;;;;;;0.10;0.10;;;;;;;11.42;42.61;99874.56;4226885;33;33318;-84
2024/02/06 00:15:50;;;;;;;0.32;0.32;;;;;;;11.87;41.58;99873.38;4211745;33;33819;-83
2024/02/06 00:18:18;;;;;;;0.00;0.00;;;;;;;12.08;41.57;99875.91;4200513;33;32947;-83
2024/02/06 00:20:45;;;;;;;0.10;0.10;;;;;;;11.72;42.94;99885.50;4201270;33;33146;-83
2024/02/06 00:23:13;;;;;;;0.22;0.22;;;;;;;11.54;43.54;99884.59;4203689;33;34162;-83
2024/02/06 00:25:41;;;;;;;0.00;0.00;;;;;;;11.48;43.37;99884.00;4236447;33;33788;-84
2024/02/06 00:28:09;;;;;;;0.00;0.00;;;;;;;11.41;43.46;99883.44;4225627;33;34715;-84
2024/02/06 00:30:39;;;;;;;2.65;0.70;;;;;;;11.26;44.13;99887.63;4212125;33;33463;-84
2024/02/06 00:33:07;;;;;;;0.73;0.50;;;;;;;11.54;44.03;99883.72;4211479;33;31848;-84
2024/02/06 00:35:35;;;;;;;1.15;0.60;;;;;;;11.26;44.61;99884.13;4213953;33;33480;-83
2024/02/06 00:38:03;;;;;;;0.05;0.05;;;;;;;11.25;44.40;99885.03;4222132;33;33748;-83
2024/02/06 00:40:31;;;;;;;1.27;1.08;;;;;;;11.12;44.40;99895.31;4201338;33;34607;-83
2024/02/06 00:42:59;;;;;;;6.93;1.90;;;;;;;10.97;44.98;99890.72;4224041;33;33870;-83
2024/02/06 00:45:28;;;;;;;1.17;0.75;;;;;;;10.82;45.62;99892.22;4224374;33;32433;-83
2024/02/06 00:47:56;;;;;;;0.73;0.73;;;;;;;10.82;45.22;99886.06;4200948;33;33240;-83
2024/02/06 00:50:23;;;;;;;0.00;0.00;;;;;;;10.72;45.50;99893.53;4201248;33;34576;-83
2024/02/06 00:52:52;;;;;;;0.65;0.50;;;;;;;10.51;46.26;99882.97;4188863;33;31568;-83
2024/02/06 00:55:20;;;;;;;0.00;0.00;;;;;;;10.54;46.16;99891.69;4213874;33;33718;-83
2024/02/06 00:57:48;;;;;;;0.62;0.62;;;;;;;10.56;46.20;99901.25;4218335;33;33066;-83
2024/02/06 01:00:16;;;;;;;0.30;0.30;;;;;;;10.43;46.59;99892.13;4203251;33;33569;-83
2024/02/06 01:02:45;;;;;;;0.20;0.20;;;;;;;10.41;46.52;99892.22;4226800;33;33438;-85
2024/02/06 01:05:12;;;;;;;0.00;0.00;;;;;;;10.27;47.21;99891.91;4212963;33;34544;-85
2024/02/06 01:07:40;;;;;;;0.32;0.25;;;;;;;10.14;47.42;99888.03;4224857;33;33343;-85
2024/02/06 01:10:09;;;;;;;1.10;1.00;;;;;;;10.20;47.24;99890.41;4188245;33;33843;-85
2024/02/06 01:12:36;;;;;;;0.88;0.82;;;;;;;9.99;47.66;99882.44;4204340;33;32613;-85
2024/02/06 01:15:05;;;;;;;5.72;2.12;;;;;;;10.24;47.02;99894.66;4214411;33;34090;-85
2024/02/06 01:17:32;;;;;;;0.00;0.00;;;;;;;9.89;47.82;99878.47;4201961;33;33559;-84
2024/02/06 01:20:00;;;;;;;0.70;0.70;;;;;;;9.31;49.79;99893.03;4203560;33;33419;-85
2024/02/06 01:22:28;;;;;;;0.03;0.03;;;;;;;9.78;48.16;99880.66;4232876;33;33851;-84
2024/02/06 01:24:57;;;;;;;0.00;0.00;;;;;;;9.70;48.45;99883.59;4211022;33;34064;-84
2024/02/06 01:27:25;;;;;;;0.32;0.32;;;;;;;9.52;48.96;99881.66;4202422;33;33993;-83
2024/02/06 01:29:52;;;;;;;0.47;0.40;;;;;;;9.42;49.24;99889.06;4211912;33;33505;-83
2024/02/06 01:32:20;;;;;;;0.60;0.60;;;;;;;9.62;48.79;99884.78;4201440;33;33558;-83
2024/02/06 01:34:48;;;;;;;0.40;0.40;;;;;;;9.61;48.59;99883.09;4224696;33;33561;-83
2024/02/06 01:37:16;;;;;;;0.00;0.00;;;;;;;9.21;49.54;99879.31;4200570;33;33080;-83
2024/02/06 01:39:43;;;;;;;0.80;0.43;;;;;;;9.03;50.46;99885.25;4211577;33;33057;-83
2024/02/06 01:42:11;;;;;;;0.37;0.37;;;;;;;8.82;50.95;99877.19;4201720;33;32203;-83
2024/02/06 01:44:38;;;;;;;0.65;0.65;;;;;;;8.93;50.75;99875.06;4211997;33;34516;-83
2024/02/06 01:47:08;;;;;;;0.98;0.77;;;;;;;8.70;51.30;99878.50;4223818;33;32878;-83
2024/02/06 01:49:36;;;;;;;0.25;0.25;;;;;;;8.76;50.86;99877.41;4200560;33;33589;-85
2024/02/06 01:52:04;;;;;;;0.55;0.40;;;;;;;8.74;50.93;99871.34;4204209;33;31770;-84
2024/02/06 01:54:34;;;;;;;0.30;0.30;;;;;;;8.36;52.49;99880.53;4224451;33;33316;-84
2024/02/06 01:57:02;;;;;;;1.30;0.75;;;;;;;8.40;52.13;99869.88;4191590;33;33636;-85
2024/02/06 01:59:29;;;;;;;0.20;0.20;;;;;;;8.43;52.06;99864.50;4211319;33;33099;-84
2024/02/06 02:01:57;;;;;;;1.65;1.33;;;;;;;9.06;50.40;99864.06;4202898;33;33385;-84
2024/02/06 02:04:25;;;;;;;0.22;0.22;;;;;;;8.60;51.13;99860.44;4225356;33;35111;-83
2024/02/06 02:06:54;;;;;;;0.05;0.05;;;;;;;8.55;51.55;99847.44;4198596;33;34018;-83
2024/02/06 02:09:22;;;;;;;3.30;1.52;;;;;;;8.19;52.57;99854.75;4200423;33;34347;-84
2024/02/06 02:11:50;;;;;;;0.20;0.20;;;;;;;8.10;53.08;99844.53;4192903;33;32298;-84
2024/02/06 02:14:18;;;;;;;0.00;0.00;;;;;;;8.13;52.78;99850.56;4210776;33;33199;-85
2024/02/06 02:16:46;;;;;;;0.05;0.00;;;;;;;8.18;52.76;99847.78;4203076;33;33391;-84
2024/02/06 02:19:14;;;;;;;0.85;0.55;;;;;;;8.20;52.60;99845.97;4200705;33;32713;-84
2024/02/06 02:21:42;;;;;;;0.70;0.70;;;;;;;8.14;52.65;99838.28;4234848;33;33257;-84
2024/02/06 02:24:10;;;;;;;2.80;1.65;;;;;;;8.23;52.33;99840.59;4207520;33;33601;-84
2024/02/06 02:26:39;;;;;;;0.20;0.20;;;;;;;7.50;54.68;99863.97;4211186;33;34786;-85
2024/02/06 02:29:07;;;;;;;0.10;0.10;;;;;;;7.82;53.63;99849.84;4202169;33;34702;-85
2024/02/06 02:31:39;;;;;;;0.00;0.00;;;;;;;7.90;53.38;99847.81;4218048;33;33255;-85
2024/02/06 02:34:08;;;;;;;0.05;0.05;;;;;;;7.75;53.61;99848.31;4215602;33;34005;-85
2024/02/06 02:36:39;;;;;;;0.00;0.00;;;;;;;7.90;53.27;99838.16;4213089;33;34402;-85
2024/02/06 02:39:09;;;;;;;0.00;0.00;;;;;;;7.67;53.84;99846.78;4204653;33;32700;-85
2024/02/06 02:41:37;;;;;;;1.58;1.48;;;;;;;7.68;53.47;99842.38;4222286;33;33374;-85
2024/02/06 02:44:06;;;;;;;0.10;0.10;;;;;;;7.57;53.54;99844.47;4217429;33;32682;-85
2024/02/06 02:46:34;;;;;;;2.47;0.75;;;;;;;7.51;54.07;99844.69;4224439;33;34028;-85
2024/02/06 02:49:02;;;;;;;0.30;0.30;;;;;;;7.57;53.86;99844.47;4223479;33;32880;-85
2024/02/06 02:51:30;;;;;;;0.68;0.68;;;;;;;7.56;53.54;99840.16;4221715;33;32338;-85
2024/02/06 02:53:58;;;;;;;0.00;0.00;;;;;;;7.77;53.31;99847.34;4210320;33;33961;-85
2024/02/06 02:56:26;;;;;;;0.30;0.30;;;;;;;7.39;54.14;99846.75;4223594;33;33631;-85
2024/02/06 02:58:54;;;;;;;0.40;0.40;;;;;;;7.47;53.93;99848.31;4226855;33;33247;-84
2024/02/06 03:01:21;;;;;;;0.75;0.62;;;;;;;7.34;54.40;99848.66;4227098;33;34079;-85
2024/02/06 03:03:49;;;;;;;0.37;0.37;;;;;;;7.33;54.51;99852.19;4204595;33;32342;-85
2024/02/06 03:06:18;;;;;;;0.00;0.00;;;;;;;7.19;54.41;99855.22;4226304;33;33095;-85
2024/02/06 03:08:47;;;;;;;1.00;1.00;;;;;;;7.14;55.26;99861.53;4236695;33;32932;-85
2024/02/06 03:11:14;;;;;;;0.75;0.75;;;;;;;7.25;53.99;99859.44;4215386;33;33781;-85
2024/02/06 03:13:42;;;;;;;0.10;0.10;;;;;;;7.43;54.10;99847.53;4201609;33;33828;-85
2024/02/06 03:16:10;;;;;;;0.35;0.35;;;;;;;7.14;54.83;99856.28;4213743;33;34075;-84
2024/02/06 03:18:38;;;;;;;5.12;2.12;;;;;;;7.49;53.94;99844.72;4213073;33;33973;-84
2024/02/06 03:21:06;;;;;;;0.00;0.00;;;;;;;7.17;54.75;99848.31;4214983;33;33420;-85
2024/02/06 03:23:34;;;;;;;0.00;0.00;;;;;;;7.36;53.63;99841.63;4214239;33;33102;-85
2024/02/06 03:26:03;;;;;;;0.20;0.20;;;;;;;7.05;54.54;99843.41;4201848;33;33187;-82
2024/02/06 03:28:31;;;;;;;0.00;0.00;;;;;;;7.24;54.44;99847.22;4225211;33;32712;-83
2024/02/06 03:30:59;;;;;;;5.18;1.08;;;;;;;6.84;55.08;99853.63;4210751;33;32944;-82
2024/02/06 03:33:27;;;;;;;0.20;0.20;;;;;;;6.88;55.21;99842.13;4222706;33;33797;-83
2024/02/06 03:35:56;;;;;;;0.65;0.65;;;;;;;7.08;54.62;99848.56;4214869;33;34789;-83
2024/02/06 03:38:25;;;;;;;0.10;0.10;;;;;;;6.76;55.20;99852.94;4223171;33;33256;-83
2024/02/06 03:40:53;;;;;;;1.67;0.15;;;;;;;6.90;54.89;99852.56;4222021;33;33480;-84
2024/02/06 03:43:21;;;;;;;0.00;0.00;;;;;;;6.72;55.30;99856.56;4200752;33;33107;-84
2024/02/06 03:45:49;;;;;;;0.30;0.30;;;;;;;6.70;55.46;99855.75;4220677;33;32743;-83
2024/02/06 03:48:16;;;;;;;0.00;0.00;;;;;;;6.73;55.56;99852.16;4200611;33;33885;-84
2024/02/06 03:50:44;;;;;;;0.68;0.68;;;;;;;6.55;56.20;99858.75;4201289;33;34113;-84
2024/02/06 03:53:12;;;;;;;1.85;1.45;;;;;;;6.67;55.88;99853.19;4236603;33;33883;-84
2024/02/06 03:55:39;;;;;;;2.90;1.75;;;;;;;6.56;56.04;99842.16;4201906;33;32589;-85
2024/02/06 03:58:09;;;;;;;0.55;0.55;;;;;;;6.46;55.80;99852.00;4212522;33;32977;-84
2024/02/06 04:00:38;;;;;;;1.42;1.10;;;;;;;6.55;55.99;99845.66;4211195;33;32907;-84
2024/02/06 04:03:06;;;;;;;0.00;0.00;;;;;;;6.62;55.63;99845.44;4228998;33;33185;-84
2024/02/06 04:05:34;;;;;;;0.85;0.85;;;;;;;6.45;56.00;99834.53;4211209;33;33390;-84
2024/02/06 04:08:03;;;;;;;1.48;1.27;;;;;;;6.45;56.36;99850.28;4222266;33;33875;-84
2024/02/06 04:10:31;;;;;;;1.27;1.02;;;;;;;6.59;55.61;99849.91;4225541;33;32862;-84
2024/02/06 04:12:58;;;;;;;0.30;0.30;;;;;;;6.65;54.85;99840.13;4214325;33;33924;-82
2024/02/06 04:15:26;;;;;;;0.00;0.00;;;;;;;6.52;55.46;99832.63;4201328;33;32346;-81
2024/02/06 04:17:54;;;;;;;0.10;0.10;;;;;;;6.43;55.95;99830.25;4225931;33;32916;-82
2024/02/06 04:20:22;;;;;;;0.05;0.05;;;;;;;6.44;55.93;99827.56;4212789;33;32377;-83
2024/02/06 04:22:49;;;;;;;0.15;0.15;;;;;;;6.40;55.70;99834.66;4200445;33;33423;-83
2024/02/06 04:25:17;;;;;;;0.30;0.30;;;;;;;6.37;55.67;99833.91;4211668;33;33589;-85
2024/02/06 04:27:45;;;;;;;0.45;0.32;;;;;;;6.29;56.23;99822.72;4225455;33;33422;-84
2024/02/06 04:30:14;;;;;;;0.73;0.73;;;;;;;6.31;56.25;99827.03;4202983;33;31668;-83
2024/02/06 04:32:42;;;;;;;0.25;0.25;;;;;;;6.15;56.63;99829.19;4225578;33;33812;-83
2024/02/06 04:35:10;;;;;;;0.45;0.45;;;;;;;6.21;56.47;99835.16;4205594;33;33081;-82
2024/02/06 04:37:38;;;;;;;1.27;0.65;;;;;;;6.14;56.77;99822.22;4213519;33;32603;-82
2024/02/06 04:40:06;;;;;;;0.52;0.52;;;;;;;6.21;56.40;99820.28;4224503;33;33898;-81
2024/02/06 04:42:34;;;;;;;0.22;0.22;;;;;;;6.25;56.07;99826.34;4234887;33;34648;-82
2024/02/06 04:45:04;;;;;;;0.28;0.28;;;;;;;6.23;56.18;99818.50;4201746;33;32577;-81
2024/02/06 04:47:35;;;;;;;3.50;1.40;;;;;;;6.19;56.36;99818.63;4212603;33;34126;-82
2024/02/06 04:50:05;;;;;;;2.62;2.40;;;;;;;6.46;55.33;99820.53;4213529;33;33901;-82
2024/02/06 04:52:33;;;;;;;2.72;1.12;;;;;;;6.21;55.59;99815.06;4215249;33;33526;-82
2024/02/06 04:55:09;;;;;;;0.57;0.57;;;;;;;6.04;56.42;99815.50;4214973;33;34474;-82
2024/02/06 04:57:38;;;;;;;1.10;1.08;;;;;;;6.16;55.79;99816.94;4201113;33;34171;-82
2024/02/06 05:00:15;;;;;;;0.43;0.43;;;;;;;5.97;56.46;99815.69;4225095;33;33088;-82
2024/02/06 05:02:43;;;;;;;0.35;0.35;;;;;;;5.97;56.61;99813.91;4212298;33;32311;-82
2024/02/06 05:05:11;;;;;;;0.65;0.60;;;;;;;5.66;57.62;99816.41;4224881;33;33981;-83
2024/02/06 05:07:39;;;;;;;0.10;0.10;;;;;;;5.80;57.24;99805.59;4210078;34;33908;-84
2024/02/06 05:10:10;;;;;;;2.33;1.02;;;;;;;5.88;57.05;99806.25;4213547;33;34558;-84
2024/02/06 05:12:38;;;;;;;0.65;0.65;;;;;;;6.25;55.96;99806.22;4213647;33;33428;-84
2024/02/06 05:15:06;;;;;;;1.10;1.00;;;;;;;5.99;55.98;99809.50;4222290;33;33731;-84
2024/02/06 05:17:34;;;;;;;1.45;1.35;;;;;;;5.88;56.79;99804.47;4205286;33;33129;-84
2024/02/06 05:20:04;;;;;;;1.10;1.00;;;;;;;5.77;56.94;99803.03;4214462;33;34237;-84
2024/02/06 05:22:32;;;;;;;0.32;0.32;;;;;;;5.66;57.42;99800.69;4213107;33;32267;-84
2024/02/06 05:25:00;;;;;;;0.10;0.10;;;;;;;5.62;57.35;99797.25;4226080;33;33633;-84
2024/02/06 05:27:28;;;;;;;0.17;0.15;;;;;;;5.66;57.18;99800.69;4217237;33;34266;-84
2024/02/06 05:29:56;;;;;;;0.82;0.75;;;;;;;5.72;57.35;99794.41;4212218;33;34149;-84
2024/02/06 05:32:24;;;;;;;3.10;1.02;;;;;;;5.82;57.01;99790.69;4222658;33;33881;-83
2024/02/06 05:34:53;;;;;;;1.02;0.73;;;;;;;5.66;57.33;99792.81;4212661;33;34758;-84
2024/02/06 05:37:21;;;;;;;1.17;1.15;;;;;;;5.59;57.22;99789.47;4213288;33;34785;-83
2024/02/06 05:39:49;;;;;;;6.32;3.97;;;;;;;5.70;57.27;99788.34;4235306;33;33618;-84
2024/02/06 05:42:17;;;;;;;0.57;0.57;;;;;;;5.75;56.85;99784.75;4214020;33;32691;-83
2024/02/06 05:44:44;;;;;;;0.35;0.35;;;;;;;5.65;57.19;99789.34;4222067;33;34177;-84
2024/02/06 05:47:13;;;;;;;1.40;0.65;;;;;;;5.86;56.28;99802.81;4213706;33;35380;-84
2024/02/06 05:49:41;;;;;;;0.37;0.28;;;;;;;5.71;56.44;99803.19;4213452;33;31490;-83
2024/02/06 05:52:09;;;;;;;0.45;0.45;;;;;;;5.34;58.19;99799.66;4194429;33;32779;-83
2024/02/06 05:54:38;;;;;;;1.60;1.27;;;;;;;5.47;57.74;99802.00;4199163;33;34326;-83
2024/02/06 05:57:06;;;;;;;0.62;0.62;;;;;;;5.62;57.47;99804.25;4225169;33;33324;-83
2024/02/06 05:59:34;;;;;;;1.45;0.98;;;;;;;5.58;57.28;99792.12;4222699;33;33898;-81
2024/02/06 06:02:03;;;;;;;0.37;0.37;;;;;;;5.62;57.12;99793.78;4213242;33;33474;-83
2024/02/06 06:04:31;;;;;;;0.10;0.10;;;;;;;5.56;56.96;99797.41;4234771;33;33599;-83
2024/02/06 06:07:00;;;;;;;0.40;0.40;;;;;;;5.53;56.85;99784.38;4222577;33;33965;-82
2024/02/06 06:09:28;;;;;;;1.35;0.62;;;;;;;5.55;57.13;99782.56;4226090;33;33460;-82
2024/02/06 06:11:56;;;;;;;0.10;0.10;;;;;;;5.59;57.24;99781.59;4226593;33;34672;-82
2024/02/06 06:14:23;;;;;;;0.10;0.10;;;;;;;5.36;58.57;99787.41;4211332;33;35158;-82
2024/02/06 06:16:51;;;;;;;0.22;0.22;;;;;;;5.59;56.96;99778.97;4202663;33;33728;-83
2024/02/06 06:19:19;;;;;;;0.80;0.80;;;;;;;5.44;57.51;99781.13;4222954;33;34088;-83
2024/02/06 06:21:47;;;;;;;0.85;0.85;;;;;;;5.58;57.61;99785.13;4222965;33;34415;-83
2024/02/06 06:24:14;;;;;;;0.10;0.10;;;;;;;5.67;57.49;99783.19;4212341;33;34271;-83
2024/02/06 06:26:42;;;;;;;0.05;0.05;;;;;;;5.73;56.56;99770.78;4211772;33;32867;-82
2024/02/06 06:29:11;;;;;;;0.82;0.82;;;;;;;6.14;55.89;99771.56;4224327;33;33125;-82
2024/02/06 06:31:38;;;;;;;1.20;1.10;;;;;;;5.62;57.00;99772.81;4214748;33;31854;-83
2024/02/06 06:34:06;;;;;;;3.35;1.75;;;;;;;5.58;57.45;99776.41;4213964;33;33543;-83
2024/02/06 06:36:35;;;;;;;0.40;0.40;;;;;;;5.87;57.31;99773.94;4209485;33;33995;-83
2024/02/06 06:39:02;;;;;;;0.20;0.20;;;;;;;5.97;56.60;99774.59;4212415;33;33786;-83
2024/02/06 06:41:30;;;;;;;0.73;0.65;;;;;;;6.34;55.88;99779.75;4231395;33;34578;-83
2024/02/06 06:43:59;;;;;;;2.03;1.37;;;;;;;5.58;58.94;99777.28;4200255;33;32700;-83
2024/02/06 06:46:27;;;;;;;1.05;1.00;;;;;;;5.68;59.85;99777.91;4203227;33;32958;-83
2024/02/06 06:48:55;;;;;;;14.32;1.55;;;;;;;5.85;59.91;99777.50;4226154;33;31400;-83
2024/02/06 06:51:22;;;;;;;2.75;1.23;;;;;;;6.46;58.05;99775.06;4221170;33;34498;-83
2024/02/06 06:53:50;;;;;;;0.60;0.57;;;;;;;6.38;58.32;99773.53;4223456;33;34706;-83
2024/02/06 06:56:19;;;;;;;0.55;0.52;;;;;;;6.39;60.60;99766.50;4211379;33;33385;-83
2024/02/06 06:58:46;;;;;;;0.62;0.60;;;;;;;6.76;60.05;99771.59;4202885;33;32635;-83
2024/02/06 07:01:14;;;;;;;3.03;1.27;;;;;;;7.34;58.27;99767.22;4200913;33;35127;-83
2024/02/06 07:03:44;;;;;;;1.35;0.95;;;;;;;6.97;59.20;99766.63;4212544;33;33629;-83
2024/02/06 07:06:12;;;;;;;0.55;0.55;;;;;;;6.98;60.23;99763.97;4212651;33;34535;-83
2024/02/06 07:08:40;;;;;;;1.65;1.55;;;;;;;6.86;61.38;99767.81;4216247;33;33460;-83
2024/02/06 07:11:08;;;;;;;3.10;0.77;;;;;;;7.26;60.77;99757.87;4212370;33;33296;-83
2024/02/06 07:13:36;;;;;;;1.00;1.00;;;;;;;7.39;60.04;99767.09;4214697;33;34863;-83
2024/02/06 07:16:05;;;;;;;2.50;2.05;;;;;;;7.36;60.57;99767.22;4237048;33;34053;-83
2024/02/06 07:18:33;;;;;;;2.97;2.08;;;;;;;7.25;61.75;99771.91;4222896;33;33469;-83
2024/02/06 07:21:01;;;;;;;1.55;1.27;;;;;;;7.38;61.84;99766.22;4226556;33;33899;-83
2024/02/06 07:23:29;;;;;;;4.62;1.87;;;;;;;7.40;62.24;99767.03;4211446;33;32110;-83
2024/02/06 07:25:57;;;;;;;2.15;2.05;;;;;;;7.56;62.84;99764.81;4233996;33;33113;-83
2024/02/06 07:28:24;;;;;;;0.65;0.65;;;;;;;7.91;62.09;99768.91;4202710;33;32973;-83
2024/02/06 07:30:53;;;;;;;1.42;1.42;;;;;;;8.45;61.02;99767.06;4214157;33;34600;-83
2024/02/06 07:33:21;;;;;;;1.92;1.83;;;;;;;8.83;59.86;99768.34;4201690;33;35116;-83
2024/02/06 07:35:50;;;;;;;0.40;0.40;;;;;;;8.73;59.67;99766.94;4204598;33;32462;-83
2024/02/06 07:38:17;;;;;;;0.80;0.80;;;;;;;8.64;60.29;99773.44;4223378;33;32485;-83
2024/02/06 07:40:45;;;;;;;1.30;1.08;;;;;;;8.56;61.51;99761.44;4211774;33;34758;-82
2024/02/06 07:43:13;;;;;;;1.00;1.00;;;;;;;8.67;61.33;99768.03;4203456;33;33798;-82
2024/02/06 07:45:47;;;;;;;2.28;2.17;;;;;;;9.29;59.77;99766.59;4200045;33;31201;-82
2024/02/06 07:48:19;;;;;;;1.52;1.42;;;;;;;9.34;59.48;99764.63;4192792;33;32544;-81
2024/02/06 07:50:48;;;;;;;2.58;2.05;;;;;;;9.54;59.41;99771.72;4215842;33;32454;-81
2024/02/06 07:53:17;;;;;;;0.55;0.55;;;;;;;9.39;59.91;99767.94;4226732;33;31434;-82
2024/02/06 07:55:45;;;;;;;1.15;1.15;;;;;;;9.57;59.34;99760.22;4234578;33;33957;-83
2024/02/06 07:58:13;;;;;;;0.98;0.62;;;;;;;9.45;60.08;99758.94;4236215;33;32788;-82
2024/02/06 08:00:41;;;;;;;4.28;2.72;;;;;;;9.72;59.34;99759.59;4215664;33;33071;-82
2024/02/06 08:03:10;;;;;;;1.02;1.02;;;;;;;9.92;58.66;99762.28;4201443;33;32646;-82
2024/02/06 08:05:38;;;;;;;1.42;1.30;;;;;;;10.12;57.90;99750.91;4218510;33;33879;-82
2024/02/06 08:08:06;;;;;;;3.80;2.90;;;;;;;10.03;58.26;99763.63;4226450;33;33607;-82
2024/02/06 08:10:34;;;;;;;1.33;1.23;;;;;;;10.50;57.24;99764.25;4226397;33;33263;-82
2024/02/06 08:13:02;;;;;;;0.95;0.95;;;;;;;10.84;56.38;99742.47;4225161;33;32825;-82
2024/02/06 08:15:30;;;;;;;13.73;1.30;;;;;;;10.37;57.13;99778.91;4199129;33;32753;-82
2024/02/06 08:17:59;;;;;;;4.18;2.55;;;;;;;11.11;55.65;99750.03;4215246;33;34370;-82
2024/02/06 08:20:27;;;;;;;4.80;4.37;;;;;;;11.18;55.28;99747.03;4199855;33;33616;-82
2024/02/06 08:22:54;;;;;;;1.35;1.35;;;;;;;11.71;52.93;99755.97;4214672;33;32897;-82
2024/02/06 08:25:22;;;;;;;4.00;1.75;;;;;;;11.35;52.75;99759.47;4235520;33;33408;-82
2024/02/06 08:27:51;;;;;;;2.25;2.00;;;;;;;11.29;52.64;99749.16;4215865;33;33078;-82
2024/02/06 08:30:18;;;;;;;1.55;1.45;;;;;;;11.31;52.22;99751.75;4212834;33;33162;-82
2024/02/06 08:32:46;;;;;;;2.95;1.98;;;;;;;11.83;51.43;99742.19;4199587;33;34155;-82
2024/02/06 08:35:14;;;;;;;6.30;1.48;;;;;;;12.15;50.74;99729.09;4224892;33;34598;-82
2024/02/06 08:37:42;;;;;;;2.90;2.67;;;;;;;12.12;51.03;99729.28;4214956;33;33421;-82
2024/02/06 08:40:10;;;;;;;1.62;1.52;;;;;;;12.47;49.57;99756.56;4212376;33;34615;-82
2024/02/06 08:42:38;;;;;;;2.05;1.95;;;;;;;12.80;47.70;99743.31;4202431;33;32448;-82
2024/02/06 08:45:08;;;;;;;7.40;3.75;;;;;;;13.02;47.17;99749.19;4236229;33;34314;-82
2024/02/06 08:47:36;;;;;;;1.83;0.88;;;;;;;13.01;47.60;99757.22;4193340;33;31703;-82
2024/02/06 08:50:06;;;;;;;0.98;0.82;;;;;;;12.99;47.91;99738.75;4212997;33;32289;-82
2024/02/06 08:52:35;;;;;;;1.25;0.57;;;;;;;12.91;48.61;99745.38;4201114;33;33344;-82
2024/02/06 08:55:03;;;;;;;5.30;2.37;;;;;;;13.05;47.81;99741.06;4213802;33;33052;-82
2024/02/06 08:57:31;;;;;;;0.55;0.52;;;;;;;13.07;48.39;99740.97;4221626;33;33661;-82
2024/02/06 08:59:59;;;;;;;7.15;1.98;;;;;;;13.24;47.79;99737.41;4223160;33;33667;-82
2024/02/06 09:02:27;;;;;;;0.60;0.60;;;;;;;13.60;46.50;99745.09;4202630;33;34528;-82
2024/02/06 09:04:55;;;;;;;3.05;1.27;;;;;;;13.96;45.58;99744.78;4224755;33;33587;-82
2024/02/06 09:07:25;;;;;;;2.40;1.67;;;;;;;14.10;45.16;99730.72;4213554;33;33311;-82
2024/02/06 09:09:56;;;;;;;1.75;1.20;;;;;;;14.05;45.26;99740.72;4212941;33;33939;-82
2024/02/06 09:12:24;;;;;;;2.15;1.77;;;;;;;14.07;45.63;99741.50;4225274;33;32884;-82
2024/02/06 09:14:52;;;;;;;1.42;1.10;;;;;;;14.02;45.75;99746.22;4212150;33;33591;-82
2024/02/06 09:17:21;;;;;;;2.55;1.98;;;;;;;14.34;45.06;99762.91;4211545;33;33816;-82
2024/02/06 09:19:49;;;;;;;2.45;1.75;;;;;;;14.04;46.00;99753.16;4201300;33;33535;-82
2024/02/06 09:22:17;;;;;;;7.22;2.15;;;;;;;14.03;46.39;99756.75;4199851;33;34119;-82
2024/02/06 09:24:45;;;;;;;1.92;1.80;;;;;;;14.46;45.11;99761.31;4180039;33;32291;-82
2024/02/06 09:27:12;;;;;;;1.25;0.98;;;;;;;14.73;45.02;99748.19;4212637;33;33849;-81
2024/02/06 09:29:40;;;;;;;2.65;0.85;;;;;;;14.97;43.39;99746.66;4215033;33;32342;-82
2024/02/06 09:32:08;;;;;;;1.12;1.12;;;;;;;14.93;43.25;99752.25;4222683;33;34637;-82
2024/02/06 09:34:36;;;;;;;0.65;0.65;;;;;;;14.97;42.87;99757.28;4210601;33;33827;-82
2024/02/06 09:37:04;;;;;;;0.35;0.35;;;;;;;14.91;43.54;99746.16;4199265;33;31108;-82
2024/02/06 09:39:32;;;;;;;3.22;1.30;;;;;;;14.78;44.21;99736.31;4236762;33;33333;-82
2024/02/06 09:42:01;;;;;;;1.10;1.08;;;;;;;14.80;44.24;99744.19;4226935;33;33604;-82
2024/02/06 09:44:30;;;;;;;1.58;1.37;;;;;;;15.00;44.14;99727.88;4212520;33;34021;-82
2024/02/06 09:47:01;;;;;;;0.95;0.95;;;;;;;15.17;44.30;99731.25;4224147;33;31686;-82
2024/02/06 09:49:31;;;;;;;4.43;3.42;;;;;;;15.66;42.55;99730.75;4203737;33;32690;-82
2024/02/06 09:52:01;;;;;;;5.90;1.23;;;;;;;15.46;43.05;99742.69;4201528;33;34785;-82
2024/02/06 09:54:31;;;;;;;3.87;1.23;;;;;;;15.65;43.57;99737.03;4212639;33;34625;-82
2024/02/06 09:56:59;;;;;;;1.73;1.62;;;;;;;16.35;41.21;99745.62;4218392;33;32698;-82
2024/02/06 09:59:27;;;;;;;1.60;1.50;;;;;;;16.72;40.30;99729.81;4215036;33;33047;-82
2024/02/06 10:01:55;;;;;;;1.62;1.50;;;;;;;16.71;40.33;99738.72;4211896;33;33760;-82
2024/02/06 10:04:25;;;;;;;0.75;0.75;;;;;;;16.51;40.18;99748.94;4214238;33;33624;-82
2024/02/06 10:06:53;;;;;;;1.90;1.80;;;;;;;16.59;40.14;99745.75;4217372;33;33462;-82
2024/02/06 10:09:21;;;;;;;4.07;1.55;;;;;;;16.59;40.22;99746.62;4226753;33;34690;-82
2024/02/06 10:11:54;;;;;;;2.15;1.77;;;;;;;16.60;40.62;99739.47;4207083;33;32602;-82
2024/02/06 10:14:22;;;;;;;0.80;0.80;;;;;;;16.53;40.97;99740.88;4232339;33;33539;-82
2024/02/06 10:16:49;;;;;;;2.83;1.70;;;;;;;16.50;41.17;99739.25;4214237;33;32990;-82
2024/02/06 10:19:18;;;;;;;3.55;1.95;;;;;;;16.72;40.48;99741.31;4223724;33;33522;-82
2024/02/06 10:21:52;;;;;;;1.30;1.15;;;;;;;16.18;42.63;99743.25;4213537;33;33746;-82
2024/02/06 10:24:20;;;;;;;3.08;1.98;;;;;;;16.75;41.14;99735.75;4214108;33;32677;-82
2024/02/06 10:26:58;;;;;;;1.55;0.98;;;;;;;16.89;40.87;99738.31;4188877;33;32186;-82
2024/02/06 10:29:27;;;;;;;1.15;1.08;;;;;;;17.20;40.74;99724.59;4223053;33;33632;-82
2024/02/06 10:31:58;;;;;;;7.35;3.08;;;;;;;17.13;40.17;99729.50;4223074;33;34213;-82
2024/02/06 10:34:27;;;;;;;4.90;1.93;;;;;;;17.29;40.19;99726.59;4212629;33;35653;-82
2024/02/06 10:36:58;;;;;;;1.10;1.00;;;;;;;17.64;39.34;99719.50;4214541;33;33927;-82
2024/02/06 10:39:30;;;;;;;1.98;1.80;;;;;;;18.22;38.54;99713.44;4215640;33;32662;-82
2024/02/06 10:42:01;;;;;;;2.00;0.98;;;;;;;18.42;36.72;99715.47;4198692;33;32772;-83
2024/02/06 10:44:33;;;;;;;1.10;1.00;;;;;;;18.53;36.80;99719.97;4207665;33;33460;-82
2024/02/06 10:47:04;;;;;;;3.60;1.95;;;;;;;18.67;35.78;99704.53;4223293;33;32948;-83
2024/02/06 10:49:32;;;;;;;0.20;0.20;;;;;;;18.58;35.63;99694.56;4211392;33;34814;-82
2024/02/06 10:52:06;;;;;;;1.42;1.20;;;;;;;18.65;36.07;99690.41;4201712;33;33716;-82
2024/02/06 10:54:35;;;;;;;1.05;1.02;;;;;;;18.91;34.19;99684.88;4225028;33;33904;-83
2024/02/06 10:57:07;;;;;;;0.65;0.57;;;;;;;19.45;33.18;99689.37;4214631;33;33465;-83
2024/02/06 10:59:49;;;;;;;2.03;0.93;;;;;;;19.50;31.89;99687.19;4203013;33;33556;-83
2024/02/06 11:02:43;;;;;;;3.47;1.48;;;;;;;19.62;31.80;99686.22;4214331;33;31682;-83
2024/02/06 11:05:28;;;;;;;1.73;0.85;;;;;;;19.55;31.58;99684.12;4210670;33;33707;-83
2024/02/06 11:08:01;;;;;;;0.77;0.73;;;;;;;19.64;30.12;99689.59;4213166;33;32912;-83
2024/02/06 11:10:40;;;;;;;2.05;0.95;;;;;;;19.81;29.83;99690.03;4222944;33;33463;-83
2024/02/06 11:13:11;;;;;;;2.17;2.08;;;;;;;19.14;30.73;99699.94;4199393;33;34711;-83
2024/02/06 11:15:40;;;;;;;4.22;2.47;;;;;;;19.29;30.22;99683.59;4216424;33;32874;-83
2024/02/06 11:18:11;;;;;;;1.33;1.23;;;;;;;19.71;30.60;99689.09;4202686;33;32806;-83
2024/02/06 11:20:40;;;;;;;4.47;1.48;;;;;;;19.77;30.64;99688.59;4202637;33;32174;-83
2024/02/06 11:23:09;;;;;;;1.90;1.33;;;;;;;19.65;30.50;99671.69;4201842;33;32935;-83
2024/02/06 11:25:38;;;;;;;0.65;0.65;;;;;;;19.55;30.70;99674.25;4214000;33;34216;-83
2024/02/06 11:28:07;;;;;;;1.67;1.08;;;;;;;19.69;32.55;99667.78;4224727;33;33341;-83
2024/02/06 11:30:35;;;;;;;1.40;1.33;;;;;;;19.81;30.42;99664.09;4212792;33;33041;-83
2024/02/06 11:33:05;;;;;;;1.30;1.12;;;;;;;20.53;29.81;99659.78;4214145;33;33713;-83
2024/02/06 11:35:34;;;;;;;0.32;0.32;;;;;;;19.75;29.40;99669.97;4213743;33;33975;-83
2024/02/06 11:38:02;;;;;;;4.75;1.12;;;;;;;20.01;29.08;99654.34;4201158;33;32888;-83
2024/02/06 11:40:32;;;;;;;0.82;0.82;;;;;;;20.08;28.49;99650.19;4214552;33;33620;-83
2024/02/06 11:43:04;;;;;;;2.22;0.88;;;;;;;20.13;28.70;99649.75;4199854;33;34716;-83
2024/02/06 11:45:33;;;;;;;32.40;1.25;;;;;;;20.27;28.90;99652.13;4238059;33;34116;-83